Time;durP1;ratioP1;P1;durP2;ratioP2;P2;SDS_P1;SDS_P2;PMS_P1;PMS_P2;Temp;Humidity;BMP_temperature;BMP_pressure;BME280_temperature;BME280_humidity;BME280_pressure;Samples;Min_cycle;Max_cycle;Signal;HPM_P1;HPM_P2
2021/11/16 00:00:39;;;;;;;36.40;17.77;;;;;;;6.41;100.00;100240.99;4332844;81;28465;-78
2021/11/16 00:06:43;;;;;;;35.53;17.67;;;;;;;6.46;100.00;100240.47;4350583;81;28459;-77
2021/11/16 00:12:45;;;;;;;32.53;16.42;;;;;;;6.52;100.00;100239.75;4352566;81;28546;-75
2021/11/16 00:18:56;;;;;;;36.85;17.10;;;;;;;6.44;100.00;100242.98;4344103;81;28494;-79
2021/11/16 00:31:07;;;;;;;;;;;;;;;6.47;100.00;100231.45;4358673;81;28526;-79
2021/11/16 00:37:08;;;;;;;34.18;17.23;;;;;;;6.38;100.00;100229.30;4363462;81;20271;-80
2021/11/16 00:43:10;;;;;;;34.83;15.50;;;;;;;6.27;100.00;100221.19;4334241;81;28526;-82
2021/11/16 00:49:12;;;;;;;31.85;16.05;;;;;;;6.35;100.00;100228.32;4336754;81;28494;-78
2021/11/16 00:55:14;;;;;;;34.75;16.32;;;;;;;6.31;100.00;100227.50;4322071;81;28481;-77
2021/11/16 01:01:16;;;;;;;33.88;16.30;;;;;;;6.31;100.00;100231.02;4306678;81;28544;-77
2021/11/16 01:07:19;;;;;;;32.60;16.80;;;;;;;6.29;100.00;100230.34;4296170;81;28507;-79
2021/11/16 01:13:23;;;;;;;32.60;16.30;;;;;;;6.25;100.00;100234.38;4318366;81;28535;-79
2021/11/16 01:19:24;;;;;;;31.57;15.48;;;;;;;6.14;100.00;100236.41;4327608;81;28545;-76
2021/11/16 01:25:27;;;;;;;32.05;15.60;;;;;;;6.14;100.00;100243.09;4328080;81;28489;-76
2021/11/16 01:31:28;;;;;;;37.85;17.90;;;;;;;6.17;100.00;100242.41;4336685;81;28445;-76
2021/11/16 01:37:30;;;;;;;38.05;17.87;;;;;;;6.31;100.00;100245.72;4326040;81;28499;-79
2021/11/16 01:43:32;;;;;;;33.30;16.77;;;;;;;6.27;100.00;100236.36;4333463;81;28444;-77
2021/11/16 01:49:34;;;;;;;29.90;14.80;;;;;;;6.27;100.00;100248.38;4352050;81;28486;-77
2021/11/16 01:55:35;;;;;;;29.05;14.05;;;;;;;6.26;100.00;100242.22;4308865;81;28502;-79
2021/11/16 02:01:39;;;;;;;30.30;14.90;;;;;;;6.33;100.00;100241.02;4253911;82;28460;-77
2021/11/16 02:07:47;;;;;;;34.40;16.55;;;;;;;6.35;100.00;100242.17;4330723;81;28517;-77
2021/11/16 02:13:49;;;;;;;35.30;16.90;;;;;;;6.38;100.00;100243.17;4348374;81;28476;-77
2021/11/16 02:19:51;;;;;;;35.65;17.70;;;;;;;6.34;100.00;100252.03;4334163;81;28486;-76
2021/11/16 02:25:53;;;;;;;28.45;14.98;;;;;;;6.31;100.00;100240.37;4276923;82;28472;-77
2021/11/16 02:31:56;;;;;;;28.55;14.65;;;;;;;6.27;100.00;100242.55;4246235;83;28552;-78
2021/11/16 02:37:58;;;;;;;33.50;15.80;;;;;;;6.33;100.00;100241.02;4248290;82;28461;-80
2021/11/16 02:44:04;;;;;;;29.87;15.43;;;;;;;6.32;100.00;100246.53;4245834;82;28554;-80
2021/11/16 02:50:07;;;;;;;34.20;16.43;;;;;;;6.28;100.00;100232.68;4332602;81;28460;-81
2021/11/16 02:56:10;;;;;;;31.90;15.48;;;;;;;6.23;100.00;100230.53;4297270;81;28553;-81
2021/11/16 03:02:13;;;;;;;32.90;16.40;;;;;;;6.19;100.00;100227.04;4270292;82;28476;-82
2021/11/16 03:08:21;;;;;;;33.60;16.62;;;;;;;6.25;100.00;100229.03;4266935;82;28486;-80
2021/11/16 03:14:24;;;;;;;37.30;17.87;;;;;;;6.14;100.00;100224.89;4256846;83;28490;-82
2021/11/16 03:20:25;;;;;;;33.28;17.15;;;;;;;6.07;100.00;100214.59;4233796;82;28638;-82
2021/11/16 03:26:28;;;;;;;33.83;16.17;;;;;;;6.07;100.00;100211.40;4263805;82;28479;-82
2021/11/16 03:32:34;;;;;;;35.98;16.37;;;;;;;6.09;100.00;100217.91;4289050;82;28455;-81
2021/11/16 03:38:36;;;;;;;35.95;18.12;;;;;;;6.12;100.00;100210.88;4285706;82;28498;-81
2021/11/16 03:44:38;;;;;;;35.95;18.02;;;;;;;6.09;100.00;100210.75;4285051;83;28499;-82
2021/11/16 03:50:40;;;;;;;40.08;20.00;;;;;;;6.04;100.00;100212.23;4183637;83;28528;-82
2021/11/16 03:56:41;;;;;;;37.58;18.10;;;;;;;6.12;100.00;100196.20;4213551;83;28472;-83
2021/11/16 04:02:43;;;;;;;37.60;18.05;;;;;;;6.06;100.00;100200.91;4245288;83;28857;-82
2021/11/16 04:08:45;;;;;;;43.75;20.82;;;;;;;6.06;100.00;100199.58;4254060;83;28481;-81
2021/11/16 04:14:46;;;;;;;43.63;20.82;;;;;;;6.10;100.00;100208.41;4224539;83;28459;-81
2021/11/16 04:20:51;;;;;;;40.30;20.52;;;;;;;6.07;100.00;100197.23;4247407;83;28503;-81
2021/11/16 04:26:52;;;;;;;33.42;16.20;;;;;;;5.96;100.00;100189.05;4245833;82;28525;-81
2021/11/16 04:32:53;;;;;;;33.83;17.35;;;;;;;5.63;100.00;100186.48;4181439;84;28479;-81
2021/11/16 04:38:55;;;;;;;37.53;19.05;;;;;;;5.71;100.00;100182.47;4254895;81;28512;-82
2021/11/16 04:44:56;;;;;;;35.95;17.65;;;;;;;5.71;100.00;100187.80;4255479;82;28469;-81
2021/11/16 05:03:19;;;;;;;31.93;16.70;;;;;;;5.71;100.00;100217.97;4257017;82;28568;-80
2021/11/16 05:09:20;;;;;;;33.65;17.37;;;;;;;5.84;100.00;100207.30;4332762;81;28517;-81
2021/11/16 05:15:23;;;;;;;37.65;19.17;;;;;;;5.88;100.00;100213.09;4329905;81;28519;-82
2021/11/16 05:21:25;;;;;;;33.92;17.62;;;;;;;5.83;100.00;100216.28;4334994;81;28475;-81
2021/11/16 05:27:27;;;;;;;32.23;16.85;;;;;;;5.74;100.00;100216.81;4321021;81;28463;-81
2021/11/16 05:33:28;;;;;;;31.95;15.70;;;;;;;5.78;100.00;100214.15;4314894;81;28473;-80
2021/11/16 05:39:30;;;;;;;38.70;19.67;;;;;;;5.79;100.00;100208.30;4338772;81;28482;-82
2021/11/16 05:45:31;;;;;;;34.75;18.48;;;;;;;5.84;100.00;100213.45;4348982;81;28531;-83
2021/11/16 05:51:33;;;;;;;35.98;18.35;;;;;;;5.85;100.00;100215.11;4345680;81;28490;-82
2021/11/16 05:57:35;;;;;;;31.93;16.10;;;;;;;5.78;100.00;100207.96;4344514;81;28468;-80
2021/11/16 06:03:36;;;;;;;35.75;16.55;;;;;;;5.81;100.00;100222.29;4272889;82;28454;-81
2021/11/16 06:09:38;;;;;;;35.90;17.32;;;;;;;5.68;100.00;100216.17;4274015;82;28462;-81
2021/11/16 06:15:39;;;;;;;38.00;17.02;;;;;;;5.63;100.00;100224.69;4280882;82;28520;-82
2021/11/16 06:21:40;;;;;;;35.33;16.40;;;;;;;5.69;100.00;100233.84;4240507;83;28512;-80
2021/11/16 06:27:42;;;;;;;34.10;16.55;;;;;;;5.63;100.00;100234.52;4239517;83;28476;-80
2021/11/16 06:33:43;;;;;;;38.92;18.27;;;;;;;5.63;100.00;100247.85;4254716;83;28473;-79
2021/11/16 06:39:44;;;;;;;41.37;18.92;;;;;;;5.65;100.00;100244.02;4156334;84;28464;-81
2021/11/16 06:45:52;;;;;;;40.60;18.15;;;;;;;5.61;100.00;100259.20;4245543;82;28504;-82
2021/11/16 06:51:56;;;;;;;38.17;18.23;;;;;;;5.57;100.00;100256.88;4226683;83;28457;-84
2021/11/16 06:57:58;;;;;;;35.78;16.52;;;;;;;5.61;100.00;100264.02;4220180;83;28493;-84
2021/11/16 07:04:05;;;;;;;38.67;18.55;;;;;;;5.71;100.00;100254.00;4227464;83;28515;-83
2021/11/16 07:10:04;;;;;;;42.27;18.67;;;;;;;5.55;100.00;100258.04;4226408;83;28569;-83
2021/11/16 07:16:12;;;;;;;39.67;18.42;;;;;;;5.55;100.00;100260.19;4225954;84;28500;-87
2021/11/16 07:22:23;;;;;;;38.78;17.05;;;;;;;5.53;100.00;100264.86;4223123;84;28461;-89
2021/11/16 07:28:24;;;;;;;39.15;18.57;;;;;;;5.64;100.00;100263.70;4232776;83;28463;-80
2021/11/16 07:34:29;;;;;;;38.88;18.25;;;;;;;5.62;100.00;100272.35;4261466;82;28532;-83
2021/11/16 07:40:33;;;;;;;39.30;18.30;;;;;;;5.63;100.00;100267.37;4246930;83;28471;-83
2021/11/16 07:46:35;;;;;;;42.25;18.40;;;;;;;5.65;100.00;100268.52;4228994;83;28462;-83
2021/11/16 07:52:37;;;;;;;39.15;18.23;;;;;;;5.63;100.00;100276.71;4233111;84;28495;-84
2021/11/16 07:58:44;;;;;;;43.20;19.23;;;;;;;5.72;100.00;100276.19;4233301;84;28491;-84
2021/11/16 08:04:59;;;;;;;42.60;19.75;;;;;;;5.79;100.00;100283.87;4229004;84;28599;-85
2021/11/16 08:10:56;;;;;;;41.75;19.57;;;;;;;5.93;100.00;100280.98;4245412;82;28485;-78
2021/11/16 08:17:00;;;;;;;40.95;18.70;;;;;;;5.88;100.00;100274.00;4243138;82;28483;-85
2021/11/16 08:23:05;;;;;;;;;;;;;;;5.90;100.00;100264.50;4269425;82;28498;-88
2021/11/16 08:29:09;;;;;;;45.73;20.20;;;;;;;6.04;100.00;100267.82;4231568;83;20498;-81
2021/11/16 08:35:19;;;;;;;41.15;19.23;;;;;;;6.01;100.00;100269.48;4232171;84;28555;-84
2021/11/16 08:41:31;;;;;;;46.00;19.75;;;;;;;6.14;100.00;100267.13;4184574;84;28448;-81
2021/11/16 08:47:36;;;;;;;44.35;18.95;;;;;;;6.07;100.00;100271.48;4197184;84;28464;-80
2021/11/16 08:53:40;;;;;;;43.33;18.77;;;;;;;6.14;100.00;100264.94;4238815;82;42855;-81
2021/11/16 08:59:42;;;;;;;45.17;20.90;;;;;;;6.20;100.00;100264.79;4225728;82;28516;-81
2021/11/16 09:05:47;;;;;;;53.48;22.15;;;;;;;6.37;100.00;100260.21;4241452;83;28448;-79
2021/11/16 09:12:06;;;;;;;48.78;21.02;;;;;;;6.41;100.00;100257.52;4230903;83;28478;-80
2021/11/16 09:18:19;;;;;;;49.83;21.07;;;;;;;6.36;100.00;100258.55;4246602;83;28477;-77
2021/11/16 09:24:27;;;;;;;47.03;20.25;;;;;;;6.32;100.00;100256.72;4239807;83;28499;-78
2021/11/16 09:30:39;;;;;;;45.60;21.77;;;;;;;6.46;100.00;100255.17;4234525;82;28528;-76
2021/11/16 09:36:53;;;;;;;50.05;22.20;;;;;;;6.59;100.00;100243.89;4227902;83;28605;-77
2021/11/16 09:42:59;;;;;;;52.58;23.47;;;;;;;6.62;100.00;100236.03;4197976;83;28573;-82
2021/11/16 09:49:04;;;;;;;49.90;21.50;;;;;;;6.63;100.00;100230.53;4202658;83;28566;-78
2021/11/16 09:55:19;;;;;;;50.30;21.15;;;;;;;6.74;100.00;100219.92;4205815;83;28481;-80
2021/11/16 10:01:38;;;;;;;49.03;22.07;;;;;;;6.72;100.00;100225.95;4274387;82;28530;-79
2021/11/16 10:07:39;;;;;;;56.13;23.80;;;;;;;6.92;100.00;100228.98;4242237;83;28442;-78
2021/11/16 10:13:40;;;;;;;57.48;24.05;;;;;;;6.94;100.00;100226.99;4242839;82;28604;-81
2021/11/16 10:19:42;;;;;;;56.53;23.70;;;;;;;6.91;100.00;100220.64;4255198;83;28499;-83
2021/11/16 10:25:56;;;;;;;58.87;25.25;;;;;;;7.01;100.00;100211.55;4221419;83;28519;-83
2021/11/16 10:31:57;;;;;;;63.70;25.70;;;;;;;7.11;100.00;100207.64;4234455;83;28462;-82
2021/11/16 10:37:59;;;;;;;60.00;25.95;;;;;;;7.24;100.00;100193.67;4223797;83;28462;-82
2021/11/16 10:44:11;;;;;;;64.27;27.90;;;;;;;7.24;100.00;100190.99;4223644;83;28490;-79
2021/11/16 10:50:17;;;;;;;54.83;24.92;;;;;;;7.25;100.00;100183.29;4227066;83;28492;-78
2021/11/16 10:56:25;;;;;;;57.85;24.92;;;;;;;7.19;100.00;100181.33;4219871;83;28656;-79
2021/11/16 11:02:28;;;;;;;66.10;28.25;;;;;;;7.34;100.00;100175.16;4254516;82;28514;-78
2021/11/16 11:08:43;;;;;;;78.37;30.62;;;;;;;7.40;100.00;100169.09;4259900;83;28499;-82
2021/11/16 11:14:46;;;;;;;80.75;31.48;;;;;;;7.32;100.00;100175.86;4241274;83;28512;-79
2021/11/16 11:20:47;;;;;;;73.17;29.87;;;;;;;7.46;100.00;100171.55;4230609;83;28483;-82
2021/11/16 11:26:56;;;;;;;68.85;27.42;;;;;;;7.50;100.00;100168.84;4156526;84;28464;-79
2021/11/16 11:32:57;;;;;;;71.87;28.75;;;;;;;7.30;100.00;100164.52;4223382;83;28455;-85
2021/11/16 11:39:00;;;;;;;83.80;32.73;;;;;;;7.25;100.00;100159.22;4197944;83;28489;-86
2021/11/16 11:45:21;;;;;;;85.45;33.18;;;;;;;7.35;100.00;100153.59;4268839;82;28509;-88
2021/11/16 11:51:23;;;;;;;85.35;33.15;;;;;;;7.53;100.00;100139.84;4240358;83;28537;-87
2021/11/16 11:57:24;;;;;;;82.25;30.75;;;;;;;7.22;100.00;100134.14;4229740;83;28488;-79
2021/11/16 12:03:26;;;;;;;78.02;31.33;;;;;;;7.20;100.00;100129.48;4255948;82;28442;-87
2021/11/16 12:09:29;;;;;;;87.12;32.40;;;;;;;7.43;100.00;100117.88;4342715;81;28485;-87
2021/11/16 12:15:59;;;;;;;78.70;30.20;;;;;;;7.24;100.00;100102.72;4321282;81;29147;-88
2021/11/16 12:22:15;;;;;;;73.75;29.50;;;;;;;7.32;100.00;100108.98;4332075;81;28502;-85
2021/11/16 12:28:31;;;;;;;70.57;26.42;;;;;;;7.32;100.00;100096.94;4323619;81;28542;-84
2021/11/16 12:34:38;;;;;;;63.17;25.23;;;;;;;7.28;100.00;100090.30;4270425;82;28485;-88
2021/11/16 12:40:41;;;;;;;;;;;;;;;7.27;100.00;100088.65;4337058;81;28502;-84
2021/11/16 12:46:45;;;;;;;78.02;30.50;;;;;;;6.96;100.00;100083.25;4316832;81;20275;-83
2021/11/16 12:52:50;;;;;;;71.37;28.73;;;;;;;7.22;100.00;100066.46;4327420;81;28461;-88
2021/11/16 12:58:56;;;;;;;64.80;26.17;;;;;;;7.11;100.00;100054.36;4251843;82;28566;-86
2021/11/16 13:05:10;;;;;;;60.43;24.23;;;;;;;7.07;100.00;100047.73;4334499;81;28461;-74
2021/11/16 13:11:11;;;;;;;57.73;24.47;;;;;;;6.58;100.00;100043.16;4320955;81;28480;-73
2021/11/16 13:17:59;;;;;;;59.38;25.23;;;;;;;6.73;100.00;100044.53;4325559;81;28472;-74
2021/11/16 13:24:04;;;;;;;62.23;25.88;;;;;;;6.88;100.00;100027.70;4254175;82;28584;-77
2021/11/16 13:30:23;;;;;;;63.95;25.10;;;;;;;6.86;100.00;100028.38;4224887;83;28519;-75
2021/11/16 13:36:33;;;;;;;56.48;22.27;;;;;;;6.80;100.00;100018.75;4225261;82;28497;-76
2021/11/16 13:42:34;;;;;;;62.45;24.77;;;;;;;6.75;100.00;100021.13;4240502;82;28991;-75
2021/11/16 13:48:48;;;;;;;63.90;26.10;;;;;;;6.65;100.00;100008.52;4323371;81;28478;-76
2021/11/16 13:55:04;;;;;;;63.28;25.00;;;;;;;6.58;100.00;100008.42;4317241;81;28451;-76
2021/11/16 14:01:06;;;;;;;58.58;23.22;;;;;;;6.20;100.00;100005.23;4294526;81;28508;-83
2021/11/16 14:07:15;;;;;;;57.35;22.22;;;;;;;5.93;100.00;100007.37;4273526;83;28534;-85
2021/11/16 14:13:26;;;;;;;54.83;23.10;;;;;;;6.14;100.00;100002.77;4268499;83;28448;-85
2021/11/16 14:19:28;;;;;;;58.10;24.82;;;;;;;5.71;100.00;100003.69;4275659;82;28497;-85
2021/11/16 14:25:31;;;;;;;49.55;21.17;;;;;;;5.96;100.00;100004.38;4281377;82;28519;-84
2021/11/16 14:31:36;;;;;;;59.15;24.07;;;;;;;5.67;100.00;100005.02;4274062;82;28508;-83
2021/11/16 14:37:55;;;;;;;60.70;25.48;;;;;;;5.41;100.00;100006.16;4291667;82;28475;-79
2021/11/16 14:44:10;;;;;;;55.17;23.55;;;;;;;5.85;100.00;100000.25;4272093;83;28513;-86
2021/11/16 14:50:23;;;;;;;66.10;25.50;;;;;;;5.49;100.00;99994.13;4279620;82;28498;-86
2021/11/16 14:56:22;;;;;;;65.92;24.32;;;;;;;5.81;100.00;99990.11;4164388;84;28572;-86
2021/11/16 15:02:24;;;;;;;53.60;22.42;;;;;;;5.57;100.00;99994.58;4214906;82;28471;-86
2021/11/16 15:08:26;;;;;;;60.65;24.20;;;;;;;5.47;100.00;99980.14;4281213;82;28500;-85
2021/11/16 15:14:28;;;;;;;68.05;26.60;;;;;;;5.22;100.00;99987.42;4258117;82;28587;-86
2021/11/16 15:21:04;;;;;;;61.02;25.02;;;;;;;5.31;100.00;99979.72;4286084;82;28455;-84
2021/11/16 15:27:20;;;;;;;69.58;23.73;;;;;;;4.95;100.00;99970.34;4258301;82;28473;-86
2021/11/16 15:33:35;;;;;;;64.50;26.00;;;;;;;5.07;100.00;99964.64;4263146;81;28501;-86
2021/11/16 15:39:36;;;;;;;70.05;26.82;;;;;;;5.21;100.00;99972.42;4319584;81;28490;-86
2021/11/16 15:46:16;;;;;;;64.22;24.95;;;;;;;5.30;100.00;99960.20;4341001;81;28446;-84
2021/11/16 15:52:52;;;;;;;66.72;23.83;;;;;;;4.96;100.00;99956.50;4276750;82;28486;-82
2021/11/16 15:57:57;;;;;;;66.70;25.35;;;;;;;5.18;100.00;99958.93;4302895;81;28512;-86
2021/11/16 16:04:03;;;;;;;65.32;24.70;;;;;;;5.25;100.00;99958.55;4336855;81;28444;-85
2021/11/16 16:10:05;;;;;;;63.47;23.27;;;;;;;4.92;100.00;99945.34;4154397;84;28554;-82
2021/11/16 16:16:17;;;;;;;58.73;23.92;;;;;;;5.01;100.00;99950.17;4302395;81;28447;-81
2021/11/16 16:22:26;;;;;;;62.30;24.57;;;;;;;4.63;100.00;99942.75;4341400;81;28484;-83
2021/11/16 16:28:27;;;;;;;65.17;27.05;;;;;;;4.52;100.00;99935.97;4308227;81;28500;-81
2021/11/16 16:34:29;;;;;;;60.33;24.57;;;;;;;4.47;100.00;99935.62;4343384;81;28439;-84
2021/11/16 16:40:31;;;;;;;60.67;23.62;;;;;;;4.68;100.00;99925.78;4321988;81;28513;-82
2021/11/16 16:46:37;;;;;;;57.70;23.57;;;;;;;4.85;100.00;99913.23;4348313;81;28450;-83
2021/11/16 16:52:41;;;;;;;57.43;23.92;;;;;;;4.94;100.00;99923.34;4306129;81;28510;-84
2021/11/16 16:58:43;;;;;;;56.48;24.90;;;;;;;4.90;100.00;99923.38;4304400;81;28483;-83
2021/11/16 17:04:50;;;;;;;59.88;24.02;;;;;;;4.85;100.00;99912.42;4310678;81;28474;-87
2021/11/16 17:10:49;;;;;;;56.95;23.65;;;;;;;4.85;100.00;99899.09;4295230;81;28549;-75
2021/11/16 17:16:51;;;;;;;56.63;23.65;;;;;;;4.70;100.00;99894.98;4298003;81;28456;-78
2021/11/16 17:22:52;;;;;;;60.30;25.00;;;;;;;4.84;100.00;99884.92;4306790;81;28483;-75
2021/11/16 17:28:53;;;;;;;54.60;23.27;;;;;;;4.81;100.00;99884.44;4292356;81;28477;-76
2021/11/16 17:34:55;;;;;;;53.70;20.97;;;;;;;4.81;100.00;99890.61;4311234;81;28462;-78
2021/11/16 17:40:56;;;;;;;58.15;23.65;;;;;;;4.39;100.00;99881.08;4299315;81;28471;-75
2021/11/16 17:46:59;;;;;;;60.33;25.02;;;;;;;3.86;100.00;99879.63;4302491;81;28524;-76
2021/11/16 17:53:06;;;;;;;62.80;25.15;;;;;;;4.01;100.00;99890.92;4315026;81;28537;-79
2021/11/16 17:59:09;;;;;;;66.70;24.77;;;;;;;4.39;100.00;99877.09;4299049;81;28573;-84
2021/11/16 18:11:30;;;;;;;75.08;29.55;;;;;;;4.50;100.00;99867.89;4323408;81;28587;-77
2021/11/16 18:17:32;;;;;;;69.22;27.42;;;;;;;4.16;100.00;99867.12;4243992;82;29066;-77
2021/11/16 18:23:33;;;;;;;71.22;27.85;;;;;;;4.05;100.00;99859.00;4279092;82;28485;-81
2021/11/16 18:29:35;;;;;;;71.50;27.52;;;;;;;4.16;100.00;99851.15;4265684;82;28479;-80
2021/11/16 18:35:37;;;;;;;67.25;25.82;;;;;;;4.23;100.00;99856.66;4236729;82;28484;-82
2021/11/16 18:47:47;;;;;;;73.50;28.23;;;;;;;4.07;100.00;99858.33;4243602;83;28433;-80
2021/11/16 18:53:44;;;;;;;62.17;25.68;;;;;;;4.12;100.00;99849.84;4278511;82;28471;-79
2021/11/16 18:59:46;;;;;;;58.63;24.63;;;;;;;4.01;100.00;99845.68;4288687;81;28477;-80
2021/11/16 19:05:52;;;;;;;59.80;23.75;;;;;;;4.22;100.00;99847.83;4323214;81;28500;-82
2021/11/16 19:11:55;;;;;;;60.98;24.32;;;;;;;4.14;100.00;99836.70;4327648;81;28496;-79
2021/11/16 19:17:56;;;;;;;57.03;23.25;;;;;;;4.14;100.00;99835.86;4317742;81;28469;-78
2021/11/16 19:23:58;;;;;;;59.90;22.70;;;;;;;3.94;100.00;99828.23;4317196;81;28452;-77
2021/11/16 19:30:00;;;;;;;57.35;24.00;;;;;;;3.82;100.00;99822.44;4319568;81;28463;-83
2021/11/16 19:36:07;;;;;;;49.67;20.90;;;;;;;3.62;100.00;99822.78;4229663;83;28515;-77
2021/11/16 19:42:11;;;;;;;49.03;21.25;;;;;;;3.94;100.00;99822.91;4325819;81;28541;-79
2021/11/16 19:48:14;;;;;;;54.63;22.30;;;;;;;3.82;100.00;99823.77;4320764;81;28540;-79
2021/11/16 19:54:15;;;;;;;52.62;21.62;;;;;;;3.75;100.00;99808.14;4318239;81;28479;-79
2021/11/16 20:00:22;;;;;;;56.58;22.07;;;;;;;3.93;100.00;99804.47;4318863;81;28503;-80
2021/11/16 20:06:24;;;;;;;51.77;21.05;;;;;;;3.88;100.00;99815.63;4349532;81;28538;-82
2021/11/16 20:12:26;;;;;;;49.10;21.23;;;;;;;3.97;100.00;99821.75;4316034;81;28564;-78
2021/11/16 20:18:27;;;;;;;52.43;22.52;;;;;;;3.85;100.00;99826.09;4353623;81;28461;-77
2021/11/16 20:24:29;;;;;;;58.98;23.98;;;;;;;3.79;100.00;99821.42;4328481;81;28474;-77
2021/11/16 20:30:34;;;;;;;60.85;23.98;;;;;;;3.91;100.00;99823.25;4324673;81;28498;-80
2021/11/16 20:36:37;;;;;;;55.28;22.48;;;;;;;3.99;100.00;99817.08;4334142;81;28502;-81
2021/11/16 20:42:47;;;;;;;58.35;23.38;;;;;;;3.87;100.00;99819.28;4329767;81;28535;-79
2021/11/16 21:01:25;;;;;;;55.38;23.40;;;;;;;3.92;100.00;99796.98;4323467;81;28508;-84
2021/11/16 21:07:26;;;;;;;55.20;23.12;;;;;;;3.92;100.00;99794.83;4312273;81;28534;-87
2021/11/16 21:13:30;;;;;;;52.62;22.00;;;;;;;3.86;100.00;99782.52;4236552;83;28484;-83
2021/11/16 21:19:36;;;;;;;51.83;21.02;;;;;;;3.76;100.00;99784.05;4249571;83;28469;-83
2021/11/16 21:25:38;;;;;;;54.08;22.05;;;;;;;3.63;100.00;99794.34;4227939;84;28477;-85
2021/11/16 21:31:41;;;;;;;45.75;19.95;;;;;;;3.65;100.00;99787.53;4234412;83;28540;-82
2021/11/16 21:37:43;;;;;;;41.18;18.67;;;;;;;3.65;100.00;99791.52;4208934;84;28570;-83
2021/11/16 21:43:46;;;;;;;45.55;18.95;;;;;;;3.57;100.00;99784.39;4248385;84;28441;-81
2021/11/16 21:49:48;;;;;;;47.10;20.72;;;;;;;3.56;100.00;99778.74;4216858;84;28511;-80
2021/11/16 21:55:52;;;;;;;44.50;20.32;;;;;;;3.59;100.00;99784.56;4221746;83;28541;-83
2021/11/16 22:01:54;;;;;;;41.77;17.98;;;;;;;3.58;100.00;99777.55;4235148;83;28465;-81
2021/11/16 22:08:10;;;;;;;38.55;18.02;;;;;;;3.59;100.00;99777.91;4227994;83;28525;-85
2021/11/16 22:14:03;;;;;;;41.75;18.05;;;;;;;3.49;100.00;99759.45;4310996;81;28459;-81
2021/11/16 22:20:10;;;;;;;41.42;19.52;;;;;;;3.44;100.00;99769.78;4308279;82;28489;-87
2021/11/16 22:26:11;;;;;;;38.55;17.10;;;;;;;3.45;100.00;99762.13;4340230;81;28513;-86
2021/11/16 22:32:25;;;;;;;39.18;16.30;;;;;;;3.51;100.00;99771.75;4304584;82;28510;-88
2021/11/16 22:38:30;;;;;;;39.30;18.67;;;;;;;3.55;100.00;99761.12;4241974;83;28509;-83
2021/11/16 22:44:32;;;;;;;40.67;18.27;;;;;;;3.48;100.00;99764.44;4347303;81;28448;-80
2021/11/16 22:50:35;;;;;;;41.75;17.57;;;;;;;3.39;100.00;99755.33;4288239;83;28499;-81
2021/11/16 22:56:41;;;;;;;40.28;17.40;;;;;;;3.39;100.00;99756.65;4365907;81;28513;-81
